Time,TemperatureF,DewpointF,PressureIn,WindDirection,WindDirectionDegrees,WindSpeedMPH,WindSpeedGustMPH,Humidity,HourlyPrecipIn,Conditions,Clouds,dailyrainin,SolarRadiationWatts/m^2,SoftwareType,DateUTC
2013-10-16 00:11:00,36.0,14.0,-100.00,SW,234,0.0,3.0,40,0.00,,,0.00,0.000000,,2013-10-16 07:11:00,
2013-10-16 00:21:00,36.0,14.0,-100.00,SW,234,0.0,3.0,40,0.00,,,0.00,0.000000,,2013-10-16 07:21:00,
2013-10-16 00:32:00,36.0,14.0,-100.00,SW,234,0.0,3.0,40,0.00,,,0.00,0.000000,,2013-10-16 07:32:00,
2013-10-16 00:42:00,36.0,14.0,-100.00,SW,234,0.0,3.0,40,0.00,,,0.00,0.000000,,2013-10-16 07:42:00,
2013-10-16 01:11:00,34.0,13.0,-100.00,WSW,240,1.0,4.0,41,0.00,,,0.00,0.000000,,2013-10-16 08:11:00,
2013-10-16 01:21:00,34.0,13.0,-100.00,WSW,240,1.0,4.0,41,0.00,,,0.00,0.000000,,2013-10-16 08:21:00,
2013-10-16 01:32:00,34.0,13.0,-100.00,WSW,240,1.0,4.0,41,0.00,,,0.00,0.000000,,2013-10-16 08:32:00,
2013-10-16 01:41:00,34.0,13.0,-100.00,WSW,240,1.0,4.0,41,0.00,,,0.00,0.000000,,2013-10-16 08:41:00,
2013-10-16 02:11:00,37.0,14.0,-100.00,SW,236,6.0,8.0,38,0.00,,,0.00,0.000000,,2013-10-16 09:11:00,
2013-10-16 02:22:00,37.0,14.0,-100.00,SW,236,6.0,8.0,38,0.00,,,0.00,0.000000,,2013-10-16 09:22:00,
2013-10-16 02:33:00,37.0,14.0,-100.00,SW,236,6.0,8.0,38,0.00,,,0.00,0.000000,,2013-10-16 09:33:00,
2013-10-16 02:43:00,37.0,14.0,-100.00,SW,236,6.0,8.0,38,0.00,,,0.00,0.000000,,2013-10-16 09:43:00,
2013-10-16 03:12:00,34.0,14.0,-100.00,SSW,213,3.0,5.0,43,0.00,,,0.00,0.000000,,2013-10-16 10:12:00,
2013-10-16 03:22:00,34.0,14.0,-100.00,SSW,213,3.0,5.0,43,0.00,,,0.00,0.000000,,2013-10-16 10:22:00,
2013-10-16 03:33:00,34.0,14.0,-100.00,SSW,213,3.0,5.0,43,0.00,,,0.00,0.000000,,2013-10-16 10:33:00,
2013-10-16 03:42:00,34.0,14.0,-100.00,SSW,213,3.0,5.0,43,0.00,,,0.00,0.000000,,2013-10-16 10:42:00,
2013-10-16 04:12:00,30.0,12.0,-100.00,SW,227,0.0,4.0,47,0.00,,,0.00,0.000000,,2013-10-16 11:12:00,
2013-10-16 04:22:00,30.0,12.0,-100.00,SW,227,0.0,4.0,47,0.00,,,0.00,0.000000,,2013-10-16 11:22:00,
2013-10-16 04:33:00,30.0,12.0,-100.00,SW,227,0.0,4.0,47,0.00,,,0.00,0.000000,,2013-10-16 11:33:00,
2013-10-16 04:42:00,30.0,12.0,-100.00,SW,227,0.0,4.0,47,0.00,,,0.00,0.000000,,2013-10-16 11:42:00,
2013-10-16 05:12:00,29.0,12.0,-100.00,WSW,250,0.0,3.0,49,0.00,,,0.00,0.000000,,2013-10-16 12:12:00,
2013-10-16 05:21:00,29.0,12.0,-100.00,WSW,250,0.0,3.0,49,0.00,,,0.00,0.000000,,2013-10-16 12:21:00,
2013-10-16 05:32:00,29.0,12.0,-100.00,WSW,250,0.0,3.0,49,0.00,,,0.00,0.000000,,2013-10-16 12:32:00,
2013-10-16 05:42:00,29.0,12.0,-100.00,WSW,250,0.0,3.0,49,0.00,,,0.00,0.000000,,2013-10-16 12:42:00,
2013-10-16 06:22:00,28.0,12.0,-100.00,SSW,208,0.0,4.0,51,0.00,,,0.00,0.000000,,2013-10-16 13:22:00,
2013-10-16 06:32:00,28.0,12.0,-100.00,SSW,208,0.0,4.0,51,0.00,,,0.00,0.000000,,2013-10-16 13:32:00,
2013-10-16 06:42:00,28.0,12.0,-100.00,SSW,208,0.0,4.0,51,0.00,,,0.00,0.000000,,2013-10-16 13:42:00,
2013-10-16 07:11:00,28.0,14.0,-100.00,SW,216,1.0,6.0,55,0.00,,,0.00,0.000000,,2013-10-16 14:11:00,
2013-10-16 07:22:00,28.0,14.0,-100.00,SW,216,1.0,6.0,55,0.00,,,0.00,0.000000,,2013-10-16 14:22:00,
2013-10-16 07:32:00,28.0,14.0,-100.00,SW,216,1.0,6.0,55,0.00,,,0.00,0.000000,,2013-10-16 14:32:00,
2013-10-16 07:41:00,28.0,14.0,-100.00,SW,216,1.0,6.0,55,0.00,,,0.00,0.000000,,2013-10-16 14:41:00,
2013-10-16 08:11:00,33.0,15.0,-100.00,WSW,240,7.0,9.0,47,0.00,,,-99.99,30.000000,,2013-10-16 15:11:00,
2013-10-16 08:22:00,33.0,15.0,-100.00,WSW,240,7.0,9.0,47,0.00,,,-99.99,30.000000,,2013-10-16 15:22:00,
2013-10-16 08:33:00,33.0,15.0,-100.00,WSW,240,7.0,9.0,47,0.00,,,-99.99,30.000000,,2013-10-16 15:33:00,
2013-10-16 08:43:00,33.0,15.0,-100.00,WSW,240,7.0,9.0,47,0.00,,,-99.99,30.000000,,2013-10-16 15:43:00,
2013-10-16 15:23:00,65.0,22.0,-100.00,NE,40,4.0,10.0,19,0.00,,,0.00,612.000000,,2013-10-16 22:23:00,
2013-10-16 15:33:00,65.0,22.0,-100.00,NE,40,4.0,10.0,19,0.00,,,0.00,612.000000,,2013-10-16 22:33:00,
2013-10-16 15:42:00,65.0,22.0,-100.00,NE,40,4.0,10.0,19,0.00,,,0.00,612.000000,,2013-10-16 22:42:00,
2013-10-16 16:12:00,64.0,22.0,-100.00,ENE,73,3.0,9.0,20,0.00,,,0.00,362.000000,,2013-10-16 23:12:00,
2013-10-16 16:22:00,64.0,22.0,-100.00,ENE,73,3.0,9.0,20,0.00,,,0.00,362.000000,,2013-10-16 23:22:00,
2013-10-16 16:34:00,64.0,22.0,-100.00,ENE,73,3.0,9.0,20,0.00,,,0.00,362.000000,,2013-10-16 23:34:00,
2013-10-16 16:42:00,64.0,22.0,-100.00,ENE,73,3.0,9.0,20,0.00,,,0.00,362.000000,,2013-10-16 23:42:00,
2013-10-16 17:11:00,67.0,23.0,-100.00,NE,52,4.0,9.0,19,0.00,,,0.00,466.000000,,2013-10-17 00:11:00,
2013-10-16 17:22:00,67.0,23.0,-100.00,NE,52,4.0,9.0,19,0.00,,,0.00,466.000000,,2013-10-17 00:22:00,
2013-10-16 17:32:00,67.0,23.0,-100.00,NE,52,4.0,9.0,19,0.00,,,0.00,466.000000,,2013-10-17 00:32:00,
2013-10-16 17:42:00,67.0,23.0,-100.00,NE,52,4.0,9.0,19,0.00,,,0.00,466.000000,,2013-10-17 00:42:00,
2013-10-16 18:12:00,61.0,20.0,-100.00,NE,50,5.0,9.0,20,0.00,,,0.00,139.000000,,2013-10-17 01:12:00,
2013-10-16 18:22:00,61.0,20.0,-100.00,NE,50,5.0,9.0,20,0.00,,,0.00,139.000000,,2013-10-17 01:22:00,
2013-10-16 18:32:00,61.0,20.0,-100.00,NE,50,5.0,9.0,20,0.00,,,0.00,139.000000,,2013-10-17 01:32:00,
2013-10-16 18:42:00,61.0,20.0,-100.00,NE,50,5.0,9.0,20,0.00,,,0.00,139.000000,,2013-10-17 01:42:00,
2013-10-16 19:12:00,59.0,19.0,-100.00,NE,50,0.0,6.0,21,0.00,,,0.00,11.000000,,2013-10-17 02:12:00,
2013-10-16 19:21:00,59.0,19.0,-100.00,NE,50,0.0,6.0,21,0.00,,,0.00,11.000000,,2013-10-17 02:21:00,
2013-10-16 19:31:00,59.0,19.0,-100.00,NE,50,0.0,6.0,21,0.00,,,0.00,11.000000,,2013-10-17 02:31:00,
2013-10-16 19:42:00,59.0,19.0,-100.00,NE,50,0.0,6.0,21,0.00,,,0.00,11.000000,,2013-10-17 02:42:00,
2013-10-16 20:12:00,54.0,17.0,-100.00,East,79,0.0,4.0,23,0.00,,,0.00,0.000000,,2013-10-17 03:12:00,
2013-10-16 20:22:00,54.0,17.0,-100.00,East,79,0.0,4.0,23,0.00,,,0.00,0.000000,,2013-10-17 03:22:00,
2013-10-16 20:34:00,54.0,17.0,-100.00,East,79,0.0,4.0,23,0.00,,,0.00,0.000000,,2013-10-17 03:34:00,
2013-10-16 20:44:00,54.0,17.0,-100.00,East,79,0.0,4.0,23,0.00,,,0.00,0.000000,,2013-10-17 03:44:00,
2013-10-16 21:24:00,47.0,16.0,-100.00,South,176,0.0,3.0,28,0.00,,,0.00,0.000000,,2013-10-17 04:24:00,
2013-10-16 21:34:00,47.0,16.0,-100.00,South,176,0.0,3.0,28,0.00,,,0.00,0.000000,,2013-10-17 04:34:00,
2013-10-16 21:43:00,47.0,16.0,-100.00,South,176,0.0,3.0,28,0.00,,,0.00,0.000000,,2013-10-17 04:43:00,
2013-10-16 22:13:00,43.0,14.0,-100.00,West,261,0.0,0.0,31,0.00,,,0.00,0.000000,,2013-10-17 05:13:00,
2013-10-16 22:23:00,43.0,14.0,-100.00,West,261,0.0,0.0,31,0.00,,,0.00,0.000000,,2013-10-17 05:23:00,
2013-10-16 22:34:00,43.0,14.0,-100.00,West,261,0.0,0.0,31,0.00,,,0.00,0.000000,,2013-10-17 05:34:00,
2013-10-16 22:42:00,43.0,14.0,-100.00,West,261,0.0,0.0,31,0.00,,,0.00,0.000000,,2013-10-17 05:42:00,
2013-10-16 23:13:00,43.0,16.0,-100.00,ENE,61,0.0,0.0,33,0.00,,,0.00,0.000000,,2013-10-17 06:13:00,
2013-10-16 23:22:00,43.0,16.0,-100.00,ENE,61,0.0,0.0,33,0.00,,,0.00,0.000000,,2013-10-17 06:22:00,
2013-10-16 23:32:00,43.0,16.0,-100.00,ENE,61,0.0,0.0,33,0.00,,,0.00,0.000000,,2013-10-17 06:32:00,
2013-10-16 23:42:00,43.0,16.0,-100.00,ENE,61,0.0,0.0,33,0.00,,,0.00,0.000000,,2013-10-17 06:42:00,